Time;durP1;ratioP1;P1;durP2;ratioP2;P2;SDS_P1;SDS_P2;PMS_P1;PMS_P2;Temp;Humidity;BMP_temperature;BMP_pressure;BME280_temperature;BME280_humidity;BME280_pressure;Samples;Min_cycle;Max_cycle;Signal;HPM_P1;HPM_P2
2021/06/10 00:01:55;;;;;;;48.55;44.25;;;;;;;14.84;100.00;100867.00;5031010;28;20499;-89
2021/06/10 00:04:22;;;;;;;49.10;44.90;;;;;;;14.81;100.00;100870.13;5027885;28;20042;-90
2021/06/10 00:06:48;;;;;;;49.53;45.28;;;;;;;14.67;100.00;100863.38;5029919;28;20470;-89
2021/06/10 00:09:14;;;;;;;46.80;42.78;;;;;;;14.61;100.00;100869.63;5032078;28;20056;-90
2021/06/10 00:11:41;;;;;;;52.60;48.28;;;;;;;14.69;100.00;100869.31;5030816;28;20461;-89
2021/06/10 00:14:07;;;;;;;50.95;46.60;;;;;;;14.68;100.00;100850.84;5032540;28;20046;-89
2021/06/10 00:16:33;;;;;;;45.95;42.08;;;;;;;14.57;100.00;100857.78;5032780;28;20053;-89
2021/06/10 00:19:01;;;;;;;41.22;37.38;;;;;;;14.18;100.00;100859.94;5032627;28;20049;-89
2021/06/10 00:21:27;;;;;;;44.60;40.60;;;;;;;14.07;100.00;100858.84;5027643;28;20104;-89
2021/06/10 00:23:54;;;;;;;46.97;42.90;;;;;;;14.30;100.00;100860.78;5031011;28;20045;-89
2021/06/10 00:26:20;;;;;;;44.33;40.25;;;;;;;14.13;100.00;100855.28;5030354;28;20045;-89
2021/06/10 00:28:46;;;;;;;47.17;43.15;;;;;;;14.27;100.00;100852.41;5031782;28;20049;-89
2021/06/10 00:31:13;;;;;;;42.72;39.03;;;;;;;14.32;100.00;100852.56;5029847;28;20427;-89
2021/06/10 00:33:39;;;;;;;43.28;39.60;;;;;;;14.30;100.00;100851.97;5031814;28;20137;-90
2021/06/10 00:36:07;;;;;;;44.40;40.63;;;;;;;14.41;100.00;100846.66;5031615;28;20057;-90
2021/06/10 00:38:33;;;;;;;42.22;38.60;;;;;;;14.26;100.00;100845.44;5029722;28;20049;-89
2021/06/10 00:41:00;;;;;;;44.08;40.58;;;;;;;14.40;100.00;100846.88;5031557;28;20045;-88
2021/06/10 00:43:26;;;;;;;45.03;41.22;;;;;;;14.39;100.00;100838.03;5029795;28;20045;-90
2021/06/10 00:45:53;;;;;;;48.00;43.90;;;;;;;14.45;100.00;100839.00;5024641;28;20466;-89
2021/06/10 00:48:19;;;;;;;48.60;44.47;;;;;;;14.42;100.00;100836.78;5029799;28;20057;-88
2021/06/10 00:50:51;;;;;;;46.85;42.95;;;;;;;14.55;100.00;100838.47;5028293;28;20072;-89
2021/06/10 00:53:25;;;;;;;46.50;42.53;;;;;;;14.45;100.00;100836.31;5029504;28;20404;-89
2021/06/10 00:55:53;;;;;;;46.45;42.25;;;;;;;14.48;100.00;100833.19;5023056;28;20107;-88
2021/06/10 00:58:23;;;;;;;46.85;42.88;;;;;;;14.49;100.00;100826.78;5011983;28;20049;-88
2021/06/10 01:00:55;;;;;;;44.78;40.88;;;;;;;14.49;100.00;100821.44;5030148;28;20495;-89
2021/06/10 01:03:21;;;;;;;52.53;48.05;;;;;;;14.52;100.00;100818.34;5031117;28;20053;-89
2021/06/10 01:05:52;;;;;;;48.80;44.50;;;;;;;14.58;100.00;100821.97;5027353;28;20132;-89
2021/06/10 01:08:28;;;;;;;54.55;49.85;;;;;;;14.62;100.00;100823.16;5025572;28;20052;-90
2021/06/10 01:11:08;;;;;;;56.13;51.13;;;;;;;14.60;100.00;100820.69;5028563;28;20045;-89
2021/06/10 01:13:45;;;;;;;49.60;45.28;;;;;;;14.53;100.00;100825.34;5031576;28;20048;-89
2021/06/10 01:16:14;;;;;;;46.60;42.70;;;;;;;14.58;100.00;100824.66;5031188;28;20122;-90
2021/06/10 01:18:41;;;;;;;46.80;42.72;;;;;;;14.59;100.00;100821.75;5031648;28;20052;-90
2021/06/10 01:21:08;;;;;;;46.33;42.35;;;;;;;14.73;100.00;100826.88;5031763;28;20053;-90
2021/06/10 01:24:01;;;;;;;42.45;38.97;;;;;;;14.65;100.00;100820.03;5034810;28;20079;-89
2021/06/10 01:26:35;;;;;;;47.22;42.97;;;;;;;14.76;100.00;100815.72;5029523;28;20094;-89
2021/06/10 01:29:05;;;;;;;44.53;40.53;;;;;;;14.78;100.00;100816.31;5034421;28;20474;-90
2021/06/10 01:31:33;;;;;;;45.63;41.83;;;;;;;14.57;100.00;100821.16;5035033;28;20128;-89
2021/06/10 01:34:04;;;;;;;45.28;41.47;;;;;;;14.57;100.00;100823.84;5034774;28;20045;-89
2021/06/10 01:36:34;;;;;;;44.65;40.65;;;;;;;14.58;100.00;100820.13;5033740;28;20480;-89
2021/06/10 01:39:06;;;;;;;44.85;40.85;;;;;;;14.40;100.00;100821.00;5033934;28;20049;-90
2021/06/10 01:41:34;;;;;;;45.88;41.78;;;;;;;14.44;100.00;100818.66;5034880;28;20144;-90
2021/06/10 01:44:03;;;;;;;44.83;41.03;;;;;;;14.53;100.00;100824.53;5031716;28;20060;-89
2021/06/10 01:46:32;;;;;;;44.25;40.30;;;;;;;14.65;100.00;100817.34;5033252;28;20491;-89
2021/06/10 01:48:59;;;;;;;41.30;37.80;;;;;;;14.27;100.00;100820.34;5031487;28;20057;-89
2021/06/10 01:51:29;;;;;;;44.97;40.80;;;;;;;14.34;100.00;100824.56;5029579;28;20050;-89
2021/06/10 01:53:58;;;;;;;43.60;39.53;;;;;;;14.46;100.00;100819.25;5031927;28;20054;-90
2021/06/10 01:56:28;;;;;;;47.58;43.58;;;;;;;14.42;100.00;100818.88;5034117;28;20049;-89
2021/06/10 01:58:56;;;;;;;45.22;41.03;;;;;;;14.53;100.00;100822.69;5029801;28;20046;-90
2021/06/10 02:01:25;;;;;;;44.72;40.83;;;;;;;14.63;100.00;100816.75;5048829;23;20045;-81
2021/06/10 02:03:54;;;;;;;48.10;44.08;;;;;;;14.73;100.00;100814.31;5036270;28;20066;-80
2021/06/10 02:06:21;;;;;;;48.50;44.58;;;;;;;14.63;100.00;100820.25;5035340;28;20061;-82
2021/06/10 02:08:48;;;;;;;49.22;45.05;;;;;;;14.63;100.00;100814.91;5035328;28;20049;-80
2021/06/10 02:11:16;;;;;;;44.88;41.17;;;;;;;14.69;100.00;100825.72;5031426;28;20053;-80
2021/06/10 02:13:44;;;;;;;44.50;40.58;;;;;;;14.59;100.00;100821.75;5035632;28;20417;-82
2021/06/10 02:16:12;;;;;;;57.22;52.35;;;;;;;14.68;100.00;100822.25;5034924;28;20132;-81
2021/06/10 02:18:41;;;;;;;52.50;48.20;;;;;;;14.78;100.00;100817.13;5035266;28;20405;-82
2021/06/10 02:21:11;;;;;;;56.05;51.50;;;;;;;14.72;100.00;100818.03;5030656;28;20041;-80
2021/06/10 02:23:38;;;;;;;50.40;46.20;;;;;;;14.76;100.00;100818.41;5035063;28;20046;-81
2021/06/10 02:26:04;;;;;;;49.65;45.05;;;;;;;14.80;100.00;100816.91;5035064;28;20118;-83
2021/06/10 02:28:31;;;;;;;59.63;54.42;;;;;;;14.93;100.00;100815.88;5034850;28;20041;-80
2021/06/10 02:30:58;;;;;;;55.20;50.70;;;;;;;14.77;100.00;100820.84;5033939;28;20111;-81
2021/06/10 02:33:25;;;;;;;45.05;41.60;;;;;;;14.87;100.00;100821.09;5034010;28;20046;-82
2021/06/10 02:35:52;;;;;;;42.70;39.00;;;;;;;14.91;100.00;100831.31;5035503;28;20049;-82
2021/06/10 02:38:21;;;;;;;45.03;41.22;;;;;;;14.84;100.00;100829.56;5035077;28;20107;-85
2021/06/10 02:40:50;;;;;;;44.75;41.15;;;;;;;14.79;100.00;100839.31;5034723;28;20049;-80
2021/06/10 02:43:17;;;;;;;48.28;44.67;;;;;;;14.71;100.00;100843.16;5034138;28;20161;-82
2021/06/10 02:45:46;;;;;;;44.17;40.67;;;;;;;14.69;100.00;100841.75;5034909;28;20404;-81
2021/06/10 02:48:13;;;;;;;45.35;41.42;;;;;;;14.39;100.00;100838.03;5035003;28;20045;-81
2021/06/10 02:50:42;;;;;;;46.75;42.95;;;;;;;14.43;100.00;100843.75;5034558;28;20064;-82
2021/06/10 02:53:14;;;;;;;46.42;42.80;;;;;;;14.47;100.00;100842.25;5028528;28;20041;-81
2021/06/10 02:55:41;;;;;;;49.25;45.75;;;;;;;14.63;100.00;100844.28;5034408;28;20054;-80
2021/06/10 02:58:09;;;;;;;46.08;42.55;;;;;;;14.62;100.00;100842.69;5032265;28;20398;-82
2021/06/10 03:00:36;;;;;;;49.78;45.83;;;;;;;14.64;100.00;100847.78;5027861;28;20065;-80
2021/06/10 03:03:03;;;;;;;46.22;42.22;;;;;;;14.63;100.00;100851.50;5034927;28;20049;-80
2021/06/10 03:05:31;;;;;;;49.80;46.00;;;;;;;14.75;100.00;100854.22;5034156;28;20096;-82
2021/06/10 03:07:58;;;;;;;53.95;49.85;;;;;;;14.69;100.00;100845.25;5031551;28;20418;-81
2021/06/10 03:10:32;;;;;;;50.17;46.28;;;;;;;14.84;100.00;100855.50;5032697;28;20132;-82
2021/06/10 03:13:00;;;;;;;51.10;47.08;;;;;;;14.81;100.00;100855.97;5033654;28;20061;-82
2021/06/10 03:15:27;;;;;;;50.53;46.58;;;;;;;14.77;100.00;100852.94;5031477;28;20136;-78
2021/06/10 03:17:54;;;;;;;51.60;47.50;;;;;;;14.83;100.00;100853.88;5034141;28;20053;-79
2021/06/10 03:20:22;;;;;;;50.05;45.95;;;;;;;15.00;100.00;100846.78;5033080;28;20053;-82
2021/06/10 03:22:48;;;;;;;49.92;45.72;;;;;;;14.84;100.00;100850.16;5031427;28;20068;-84
2021/06/10 03:25:15;;;;;;;50.60;46.50;;;;;;;14.80;100.00;100841.78;5033863;28;20049;-82
2021/06/10 03:27:44;;;;;;;53.90;49.33;;;;;;;14.89;100.00;100844.94;5034222;28;20053;-80
2021/06/10 03:30:11;;;;;;;48.63;44.80;;;;;;;15.03;100.00;100846.31;5033329;28;20049;-80
2021/06/10 03:32:38;;;;;;;50.28;46.17;;;;;;;14.92;100.00;100841.78;5034163;28;20489;-80
2021/06/10 03:35:06;;;;;;;51.92;48.03;;;;;;;15.03;100.00;100838.28;5030371;28;20048;-81
2021/06/10 03:37:33;;;;;;;52.67;48.47;;;;;;;14.97;100.00;100844.56;5034000;28;20049;-80
2021/06/10 03:40:01;;;;;;;60.45;55.90;;;;;;;15.21;100.00;100842.72;5033932;28;20045;-79
2021/06/10 03:42:29;;;;;;;59.92;54.70;;;;;;;15.23;100.00;100847.84;5026490;28;20037;-82
2021/06/10 03:44:58;;;;;;;60.95;55.22;;;;;;;15.31;100.00;100853.66;5032255;28;20138;-82
2021/06/10 03:47:24;;;;;;;58.45;52.33;;;;;;;15.28;100.00;100851.47;5034564;28;20073;-82
2021/06/10 03:49:51;;;;;;;57.40;51.60;;;;;;;15.19;100.00;100855.53;5032516;28;20050;-81
2021/06/10 03:52:17;;;;;;;58.33;52.53;;;;;;;15.49;100.00;100847.38;5027571;23;20514;-89
2021/06/10 03:54:44;;;;;;;58.60;52.70;;;;;;;15.57;100.00;100855.00;5015308;28;20051;-89
2021/06/10 03:57:12;;;;;;;57.25;51.38;;;;;;;15.51;100.00;100849.78;5016781;28;20046;-89
2021/06/10 03:59:38;;;;;;;57.35;51.05;;;;;;;15.37;100.00;100846.56;4999805;28;20042;-90
2021/06/10 04:02:06;;;;;;;44.83;41.58;;;;;;;15.53;100.00;100845.84;5005727;28;20043;-89
2021/06/10 04:04:32;;;;;;;43.78;40.47;;;;;;;15.49;100.00;100846.53;5006399;28;20046;-89
2021/06/10 04:06:59;;;;;;;43.72;40.22;;;;;;;15.58;100.00;100853.97;5003299;28;20476;-90
2021/06/10 04:09:25;;;;;;;42.25;38.95;;;;;;;15.62;100.00;100854.31;5007760;28;20045;-89
2021/06/10 04:11:52;;;;;;;47.00;43.45;;;;;;;15.66;100.00;100844.75;5002143;28;20091;-89
2021/06/10 04:14:18;;;;;;;44.72;41.53;;;;;;;15.72;100.00;100849.19;5010949;28;20046;-89
2021/06/10 04:16:46;;;;;;;46.47;43.38;;;;;;;15.88;100.00;100847.63;5002284;28;20046;-89
2021/06/10 04:19:14;;;;;;;54.35;50.75;;;;;;;16.00;100.00;100847.59;5010325;28;20049;-90
2021/06/10 04:21:41;;;;;;;49.88;46.20;;;;;;;16.03;100.00;100844.44;5004521;28;20054;-90
2021/06/10 04:24:07;;;;;;;45.17;42.17;;;;;;;16.15;100.00;100855.91;4999933;28;20058;-89
2021/06/10 04:26:34;;;;;;;48.95;45.40;;;;;;;16.25;100.00;100858.81;5002029;28;20061;-89
2021/06/10 04:29:00;;;;;;;44.50;41.05;;;;;;;16.03;100.00;100853.28;5002873;28;20046;-90
2021/06/10 04:31:26;;;;;;;47.60;44.40;;;;;;;16.15;100.00;100855.91;5004058;28;20058;-89
2021/06/10 04:33:55;;;;;;;47.20;43.17;;;;;;;16.29;100.00;100859.13;5004429;28;20486;-90
2021/06/10 04:36:23;;;;;;;44.10;40.97;;;;;;;16.32;100.00;100855.97;5010776;28;20184;-89
2021/06/10 04:38:50;;;;;;;46.03;42.67;;;;;;;16.37;100.00;100857.91;5002038;28;20042;-89
2021/06/10 04:41:17;;;;;;;45.47;42.38;;;;;;;16.37;100.00;100860.59;5000844;28;20076;-89
2021/06/10 04:43:47;;;;;;;45.85;42.65;;;;;;;16.44;100.00;100847.88;5007998;28;20061;-89
2021/06/10 04:46:13;;;;;;;47.75;44.60;;;;;;;16.55;100.00;100849.69;5002523;28;20066;-89
2021/06/10 04:48:40;;;;;;;46.40;43.10;;;;;;;16.56;100.00;100855.84;5002675;28;20046;-90
2021/06/10 04:51:06;;;;;;;47.22;43.90;;;;;;;16.49;100.00;100859.50;5002027;28;20049;-89
2021/06/10 04:53:36;;;;;;;46.47;43.13;;;;;;;16.63;100.00;100857.31;5003178;28;20070;-90
2021/06/10 04:56:02;;;;;;;44.92;41.88;;;;;;;16.69;100.00;100852.84;5001883;28;20056;-90
2021/06/10 04:58:29;;;;;;;48.15;44.30;;;;;;;16.73;100.00;100851.31;5004053;28;20451;-90
2021/06/10 05:00:56;;;;;;;45.47;42.17;;;;;;;16.84;100.00;100853.13;5000203;28;20050;-89
2021/06/10 05:03:23;;;;;;;62.95;58.65;;;;;;;16.92;100.00;100858.09;5009815;28;20054;-90
2021/06/10 05:05:52;;;;;;;45.08;41.40;;;;;;;17.03;100.00;100858.25;5004638;28;20500;-89
2021/06/10 05:08:19;;;;;;;46.80;43.38;;;;;;;17.26;100.00;100855.38;5006722;28;20400;-89
2021/06/10 05:10:48;;;;;;;47.17;43.47;;;;;;;17.34;100.00;100851.47;5005848;28;20051;-90
2021/06/10 05:13:15;;;;;;;43.95;40.75;;;;;;;17.33;100.00;100853.31;5007128;28;20420;-89
2021/06/10 05:15:41;;;;;;;46.17;42.55;;;;;;;17.40;100.00;100862.03;5003120;28;20051;-90
2021/06/10 05:18:07;;;;;;;44.88;41.28;;;;;;;17.50;100.00;100852.47;5003665;28;20104;-90
2021/06/10 05:20:36;;;;;;;48.50;44.17;;;;;;;17.53;100.00;100865.41;5002853;28;20053;-89
2021/06/10 05:23:03;;;;;;;45.13;41.60;;;;;;;17.56;100.00;100854.16;5003332;28;20424;-90
2021/06/10 05:25:29;;;;;;;50.67;46.80;;;;;;;17.68;100.00;100862.13;5001243;28;20120;-89
2021/06/10 05:27:57;;;;;;;47.22;43.67;;;;;;;17.72;100.00;100857.84;4999631;28;20046;-89
2021/06/10 05:30:26;;;;;;;49.00;45.28;;;;;;;17.93;100.00;100864.31;5000377;28;20046;-90
2021/06/10 05:32:54;;;;;;;48.00;44.35;;;;;;;17.93;100.00;100861.63;4995090;28;20065;-89
2021/06/10 05:35:22;;;;;;;50.97;47.08;;;;;;;18.11;100.00;100865.88;5006041;28;20046;-90
2021/06/10 05:37:49;;;;;;;46.85;43.05;;;;;;;18.15;100.00;100861.59;5000822;28;20140;-89
2021/06/10 05:40:17;;;;;;;48.40;44.60;;;;;;;18.28;100.00;100862.03;5004910;28;20506;-89
2021/06/10 05:42:43;;;;;;;47.95;44.25;;;;;;;18.64;100.00;100859.69;5000106;28;20062;-90
2021/06/10 05:45:12;;;;;;;51.00;47.00;;;;;;;18.67;100.00;100859.16;5008690;28;20414;-90
2021/06/10 05:47:39;;;;;;;48.25;44.55;;;;;;;18.75;100.00;100860.59;4999883;28;20050;-90
2021/06/10 05:50:09;;;;;;;48.95;45.25;;;;;;;18.86;100.00;100866.88;5001080;28;20053;-90
2021/06/10 05:52:36;;;;;;;49.05;45.45;;;;;;;19.08;100.00;100867.56;5009758;28;20531;-87
2021/06/10 05:55:02;;;;;;;46.85;43.42;;;;;;;19.25;100.00;100859.34;5006295;28;20058;-88
2021/06/10 05:57:28;;;;;;;46.92;43.55;;;;;;;19.44;100.00;100857.00;4967074;28;20543;-89
2021/06/10 05:59:57;;;;;;;48.38;45.00;;;;;;;19.52;100.00;100851.13;5006877;28;20104;-88
2021/06/10 06:02:28;;;;;;;52.58;48.50;;;;;;;19.68;100.00;100858.25;5006489;28;20038;-90
2021/06/10 06:04:55;;;;;;;56.00;51.90;;;;;;;20.04;100.00;100849.47;5000358;28;20058;-89
2021/06/10 06:07:21;;;;;;;50.95;47.45;;;;;;;20.15;100.00;100853.78;5006694;28;20042;-88
2021/06/10 06:09:47;;;;;;;52.13;48.40;;;;;;;20.24;100.00;100857.63;5004231;28;20050;-88
2021/06/10 06:12:15;;;;;;;45.53;42.08;;;;;;;20.28;100.00;100852.50;5006434;28;20042;-90
2021/06/10 06:14:44;;;;;;;48.83;45.38;;;;;;;20.48;100.00;100857.09;5013394;28;20522;-90
2021/06/10 06:17:12;;;;;;;51.72;48.15;;;;;;;20.92;100.00;100859.28;5005646;28;20042;-90
2021/06/10 06:19:41;;;;;;;48.63;45.22;;;;;;;20.98;100.00;100856.31;5017846;28;20427;-88
2021/06/10 06:22:08;;;;;;;47.30;44.00;;;;;;;21.17;100.00;100853.03;5017710;28;20057;-89
2021/06/10 06:24:35;;;;;;;54.17;50.38;;;;;;;21.33;100.00;100851.09;5009978;28;20053;-88
2021/06/10 06:27:02;;;;;;;47.35;44.15;;;;;;;21.37;100.00;100857.63;5008576;28;20422;-89
2021/06/10 06:29:28;;;;;;;43.80;40.70;;;;;;;21.46;100.00;100862.19;5011005;28;20046;-88
2021/06/10 06:31:55;;;;;;;46.10;42.95;;;;;;;21.89;100.00;100853.63;5004338;28;20050;-87
2021/06/10 06:34:21;;;;;;;42.25;39.15;;;;;;;22.24;100.00;100849.13;5006281;28;20049;-88
2021/06/10 06:36:51;;;;;;;46.60;43.50;;;;;;;22.21;100.00;100846.97;5016921;28;20052;-88
2021/06/10 06:39:18;;;;;;;45.05;42.25;;;;;;;22.09;100.00;100853.53;5013408;28;20050;-89
2021/06/10 06:41:44;;;;;;;46.17;43.38;;;;;;;22.17;100.00;100852.97;5005964;28;20046;-89
2021/06/10 06:44:11;;;;;;;46.25;43.45;;;;;;;22.24;100.00;100847.25;5010674;28;20447;-87
2021/06/10 06:46:37;;;;;;;41.83;39.13;;;;;;;22.27;100.00;100848.56;5010086;28;20057;-88
2021/06/10 06:49:04;;;;;;;44.47;41.72;;;;;;;22.24;100.00;100854.53;5014405;28;20132;-90
2021/06/10 06:51:30;;;;;;;43.22;40.22;;;;;;;22.42;100.00;100851.16;5013000;28;20041;-91
2021/06/10 06:53:58;;;;;;;39.83;37.28;;;;;;;22.54;100.00;100858.94;5002546;28;20500;-91
2021/06/10 06:56:25;;;;;;;40.55;38.15;;;;;;;22.97;100.00;100849.13;5005471;28;20057;-88
2021/06/10 06:58:52;;;;;;;32.95;31.15;;;;;;;23.09;100.00;100854.97;5021586;28;20045;-90
2021/06/10 07:01:18;;;;;;;35.67;33.45;;;;;;;22.84;100.00;100857.88;5013413;28;20103;-90
2021/06/10 07:03:44;;;;;;;41.58;38.72;;;;;;;22.37;100.00;100865.56;5008885;28;20058;-91
2021/06/10 07:06:11;;;;;;;39.95;37.70;;;;;;;22.64;100.00;100861.56;5002741;28;20104;-88
2021/06/10 07:08:37;;;;;;;38.00;35.78;;;;;;;22.72;100.00;100860.16;5008070;28;20042;-87
2021/06/10 07:11:05;;;;;;;34.35;32.35;;;;;;;22.67;100.00;100857.50;5014066;28;20042;-88
2021/06/10 07:13:31;;;;;;;34.30;32.15;;;;;;;22.82;100.00;100862.78;5013095;28;20050;-88
2021/06/10 07:15:58;;;;;;;34.90;32.80;;;;;;;22.42;100.00;100867.41;5004492;28;20051;-89
2021/06/10 07:18:24;;;;;;;34.85;32.58;;;;;;;23.04;100.00;100865.03;5011326;28;20415;-88
2021/06/10 07:20:51;;;;;;;33.45;31.55;;;;;;;23.10;100.00;100866.59;5015576;28;20049;-88
2021/06/10 07:23:19;;;;;;;33.92;31.92;;;;;;;22.88;100.00;100872.47;5012931;28;20046;-89
2021/06/10 07:25:45;;;;;;;39.15;36.75;;;;;;;23.02;100.00;100873.44;5006900;28;20050;-89
2021/06/10 07:28:13;;;;;;;36.65;34.42;;;;;;;23.11;100.00;100870.91;5008157;28;20046;-89
2021/06/10 07:30:39;;;;;;;39.92;37.33;;;;;;;22.95;100.00;100872.16;5018636;28;20107;-89
2021/06/10 07:33:06;;;;;;;46.88;44.08;;;;;;;23.52;100.00;100875.91;5001880;28;20487;-89
2021/06/10 07:35:33;;;;;;;40.28;37.53;;;;;;;23.97;100.00;100873.78;5011557;28;20049;-88
2021/06/10 07:38:02;;;;;;;32.05;30.15;;;;;;;23.94;100.00;100877.06;5013237;28;20046;-85
2021/06/10 07:40:29;;;;;;;33.92;31.80;;;;;;;23.65;100.00;100877.91;5012792;28;20042;-85
2021/06/10 07:42:56;;;;;;;36.10;33.92;;;;;;;23.54;100.00;100881.84;5007782;28;20049;-85
2021/06/10 07:45:25;;;;;;;32.75;30.75;;;;;;;23.31;100.00;100883.47;5009844;28;20061;-86
2021/06/10 07:47:53;;;;;;;35.83;33.67;;;;;;;24.22;100.00;100878.03;5011126;28;20111;-86
2021/06/10 07:50:19;;;;;;;33.28;31.30;;;;;;;23.93;100.00;100889.00;5009850;28;20488;-86
2021/06/10 07:52:45;;;;;;;30.88;28.65;;;;;;;23.26;100.00;100887.03;5008181;28;20049;-86
2021/06/10 07:55:12;;;;;;;31.48;29.45;;;;;;;23.55;100.00;100889.69;5013346;28;20038;-90
2021/06/10 07:57:39;;;;;;;32.97;30.60;;;;;;;23.97;100.00;100888.13;5006027;28;20050;-89
2021/06/10 08:00:07;;;;;;;33.42;31.33;;;;;;;24.16;100.00;100890.84;5006022;28;20120;-89
2021/06/10 08:02:37;;;;;;;32.60;30.15;;;;;;;24.03;100.00;100885.38;5003498;28;20096;-89
2021/06/10 08:05:04;;;;;;;33.00;30.40;;;;;;;24.55;100.00;100886.25;5002018;28;20049;-90
2021/06/10 08:07:33;;;;;;;29.83;28.02;;;;;;;24.15;100.00;100889.25;5001412;28;20096;-89
2021/06/10 08:10:00;;;;;;;30.23;28.38;;;;;;;24.28;100.00;100892.34;5002180;28;20133;-89
2021/06/10 08:12:26;;;;;;;28.00;26.20;;;;;;;24.67;100.00;100897.47;5003870;28;20042;-89
2021/06/10 08:14:53;;;;;;;29.60;27.92;;;;;;;25.08;100.00;100892.16;5009813;28;20570;-88
2021/06/10 08:17:21;;;;;;;29.35;27.52;;;;;;;24.58;100.00;100883.75;5001458;28;20431;-88
2021/06/10 08:19:48;;;;;;;29.63;27.50;;;;;;;24.94;100.00;100895.94;5001491;28;20050;-88
2021/06/10 08:22:15;;;;;;;31.85;29.65;;;;;;;24.60;100.00;100889.72;5002808;28;21296;-90
2021/06/10 08:24:41;;;;;;;32.85;30.95;;;;;;;25.07;100.00;100887.81;5001994;28;20092;-90
2021/06/10 08:27:08;;;;;;;28.67;26.98;;;;;;;24.88;100.00;100890.59;5004431;28;20062;-89
2021/06/10 08:29:35;;;;;;;34.90;33.10;;;;;;;23.88;100.00;100884.47;4999408;28;20069;-90
2021/06/10 08:32:01;;;;;;;33.17;31.17;;;;;;;24.29;100.00;100888.50;5000520;28;20046;-90
2021/06/10 08:34:28;;;;;;;32.22;30.52;;;;;;;24.77;100.00;100891.06;4998694;28;20100;-89
2021/06/10 08:36:55;;;;;;;31.55;29.85;;;;;;;24.48;100.00;100886.66;5002710;28;20047;-90
2021/06/10 08:39:22;;;;;;;30.05;28.10;;;;;;;24.55;100.00;100878.13;5002862;28;20054;-90
2021/06/10 08:41:48;;;;;;;30.35;28.55;;;;;;;23.75;100.00;100893.28;5003153;28;20050;-90
2021/06/10 08:44:17;;;;;;;32.35;30.42;;;;;;;24.67;100.00;100884.69;5005911;28;20075;-90
2021/06/10 08:46:45;;;;;;;28.83;27.33;;;;;;;25.21;100.00;100881.66;5000738;28;20054;-88
2021/06/10 08:49:15;;;;;;;28.45;26.67;;;;;;;25.01;100.00;100886.28;5000576;28;20062;-90
2021/06/10 08:51:41;;;;;;;33.95;32.10;;;;;;;25.04;100.00;100888.41;5001418;28;20054;-90
2021/06/10 08:54:09;;;;;;;28.80;27.20;;;;;;;25.29;100.00;100878.22;5002392;28;20046;-90
2021/06/10 08:56:37;;;;;;;30.42;28.67;;;;;;;25.20;100.00;100885.44;5002485;28;20108;-89
2021/06/10 08:59:03;;;;;;;29.52;27.65;;;;;;;24.98;100.00;100886.91;5006298;28;20053;-90
2021/06/10 09:01:34;;;;;;;28.77;26.85;;;;;;;24.64;100.00;100882.56;5001708;28;20506;-90
2021/06/10 09:04:00;;;;;;;29.15;27.35;;;;;;;24.46;100.00;100888.84;5001765;28;20049;-89
2021/06/10 09:06:26;;;;;;;28.35;26.63;;;;;;;24.47;100.00;100890.44;5000300;28;20046;-90
2021/06/10 09:08:56;;;;;;;30.77;28.73;;;;;;;24.69;100.00;100889.84;5000480;28;20054;-90
2021/06/10 09:11:25;;;;;;;29.35;27.50;;;;;;;24.07;100.00;100894.53;5001487;28;20054;-90
2021/06/10 09:13:55;;;;;;;28.58;26.48;;;;;;;24.32;100.00;100896.06;5012042;28;20555;-90
2021/06/10 09:16:24;;;;;;;29.13;26.98;;;;;;;24.22;100.00;100895.13;5001172;28;20500;-90
2021/06/10 09:18:57;;;;;;;28.63;26.83;;;;;;;24.56;100.00;100894.09;5000114;28;20062;-89
2021/06/10 09:21:24;;;;;;;29.63;27.92;;;;;;;24.48;100.00;100894.78;5000288;28;20129;-89
2021/06/10 09:23:51;;;;;;;30.88;28.30;;;;;;;24.91;100.00;100889.19;5001733;28;20097;-89
2021/06/10 09:26:20;;;;;;;28.45;26.60;;;;;;;25.16;100.00;100896.13;5002171;28;20053;-89
2021/06/10 09:28:51;;;;;;;27.48;25.58;;;;;;;25.30;100.00;100888.81;5002823;28;20050;-90
2021/06/10 09:31:32;;;;;;;28.05;26.35;;;;;;;25.36;100.00;100886.78;5002141;28;20499;-90
2021/06/10 09:33:59;;;;;;;31.25;29.00;;;;;;;25.36;100.00;100889.50;5002622;28;20069;-90
2021/06/10 09:36:26;;;;;;;29.48;27.60;;;;;;;25.76;100.00;100896.03;5002201;28;20088;-89
2021/06/10 09:39:06;;;;;;;28.38;26.42;;;;;;;25.70;100.00;100891.03;5001545;28;20434;-88
2021/06/10 09:41:33;;;;;;;32.17;29.88;;;;;;;26.01;100.00;100888.47;5005152;28;20042;-90
2021/06/10 09:44:03;;;;;;;31.90;30.00;;;;;;;25.21;100.00;100887.09;5007439;28;20057;-90
2021/06/10 09:46:30;;;;;;;32.10;30.20;;;;;;;25.27;100.00;100885.88;5003958;28;20053;-91
2021/06/10 09:49:08;;;;;;;30.88;28.95;;;;;;;25.11;100.00;100888.84;5005846;28;20054;-91
2021/06/10 09:51:34;;;;;;;30.33;28.60;;;;;;;25.89;100.00;100877.31;5004231;28;20058;-90
2021/06/10 09:54:00;;;;;;;32.22;30.52;;;;;;;25.66;100.00;100877.22;5006032;28;20100;-91
2021/06/10 09:56:27;;;;;;;31.95;30.33;;;;;;;25.54;100.00;100871.50;5005787;28;20412;-91
2021/06/10 09:58:57;;;;;;;29.65;27.80;;;;;;;26.35;100.00;100871.63;5008786;28;20050;-91
2021/06/10 10:01:27;;;;;;;31.80;30.02;;;;;;;25.74;100.00;100872.97;5004714;28;20073;-91
2021/06/10 10:03:54;;;;;;;30.77;28.92;;;;;;;25.84;100.00;100863.81;5004875;28;20111;-91
2021/06/10 10:06:24;;;;;;;29.85;27.95;;;;;;;26.21;100.00;100860.81;5003450;28;20046;-90
2021/06/10 10:08:53;;;;;;;29.25;27.50;;;;;;;26.82;100.00;100852.31;5003863;28;20057;-90
2021/06/10 10:11:21;;;;;;;29.52;27.77;;;;;;;27.45;100.00;100855.81;5004811;28;20050;-91
2021/06/10 10:13:50;;;;;;;28.48;26.77;;;;;;;27.30;100.00;100849.66;5014793;28;20060;-90
2021/06/10 10:16:22;;;;;;;27.08;25.58;;;;;;;25.46;100.00;100853.16;5003133;28;20424;-90
2021/06/10 10:18:50;;;;;;;;;;;;;;;26.17;100.00;100846.22;5003770;28;20062;-91
2021/06/10 10:21:19;;;;;;;30.23;28.50;;;;;;;26.77;100.00;100850.50;5003764;28;19929;-91
2021/06/10 10:23:46;;;;;;;31.75;29.95;;;;;;;27.24;100.00;100852.84;5005250;28;20058;-91
2021/06/10 10:26:12;;;;;;;29.35;27.65;;;;;;;26.36;100.00;100843.31;5005023;28;20054;-91
2021/06/10 10:28:39;;;;;;;29.48;27.67;;;;;;;26.41;100.00;100848.63;5005017;28;20427;-91
2021/06/10 10:31:12;;;;;;;29.17;27.25;;;;;;;27.06;100.00;100839.13;5005136;28;20174;-90
2021/06/10 10:33:43;;;;;;;29.30;27.58;;;;;;;25.29;100.00;100848.31;5005258;28;20135;-92
2021/06/10 10:36:22;;;;;;;29.40;27.55;;;;;;;26.21;100.00;100838.25;5003914;28;20042;-90
2021/06/10 10:38:57;;;;;;;27.67;26.08;;;;;;;26.36;100.00;100839.81;4999385;28;20549;-90
2021/06/10 10:41:23;;;;;;;28.77;27.08;;;;;;;25.98;100.00;100835.47;5002973;28;20038;-90
2021/06/10 10:43:50;;;;;;;28.35;26.58;;;;;;;26.55;100.00;100828.75;5006847;28;20061;-90
2021/06/10 10:46:19;;;;;;;27.83;26.25;;;;;;;26.10;100.00;100824.06;5004787;28;20537;-90
2021/06/10 10:48:46;;;;;;;28.65;26.85;;;;;;;26.30;100.00;100827.44;5005397;28;20061;-90
2021/06/10 10:51:26;;;;;;;27.90;26.27;;;;;;;26.41;100.00;100818.69;5003992;28;20054;-90
2021/06/10 10:53:58;;;;;;;27.67;25.98;;;;;;;26.78;100.00;100808.53;5004625;28;20508;-90
2021/06/10 10:56:38;;;;;;;27.35;25.77;;;;;;;26.48;100.00;100810.09;5005014;28;20128;-91
2021/06/10 10:59:12;;;;;;;29.98;28.35;;;;;;;26.58;100.00;100803.59;5008399;28;20053;-91
2021/06/10 11:01:39;;;;;;;32.80;30.42;;;;;;;26.44;100.00;100799.00;5004726;28;20042;-91
2021/06/10 11:04:06;;;;;;;29.80;28.20;;;;;;;26.64;100.00;100796.91;5003707;28;20192;-90
2021/06/10 11:06:38;;;;;;;28.30;26.52;;;;;;;26.63;100.00;100793.41;5005934;28;20051;-90